BCS6892 / G-DHKC 7700 Squawk Report (14th of March, 2018)

Aircraft B752 Reg No. G-DHKC Age 18 years old
Model 757 Jet engines 2 First flight 16-01-00
Registered 08-11-16 Rollout 02-11-00 Delivered 06-12-00
Construction No. 30052 Line No. 0948 Series 256(PCF)
ADSHEX 40712E Airline name DHL Air UK Owner N/A
Airfield based East Midlands~Leics~G First tracked 2016-11-10 14:59:09

Flight history for G-DHKC

Route Flight No Date Playback
???? N/A 2018-09-15 03:52:00
???? N/A 2018-09-15 01:35:00
???? QY5707 2018-09-14 19:12:00
???? QY5706 2018-09-14 07:13:00
???? D0134 2018-09-14 05:24:00
Charles De Gaulle (CDG) - Leipzig Halle (LEJ) QY1263 2018-09-13 23:13:00
???? QY939 2018-09-13 21:51:00
???? QY938 2018-09-13 06:58:00
Leipzig Halle (LEJ) - Charles De Gaulle (CDG) QY1264 2018-09-13 03:15:00
Charles De Gaulle (CDG) - Leipzig Halle (LEJ) QY1263 2018-09-13 01:45:00
???? QY939 2018-09-12 21:59:00
???? QY938 2018-09-12 07:00:00
???? N/A 2018-09-12 05:20:00
Leipzig Halle (LEJ) - Charles De Gaulle (CDG) QY1264 2018-09-12 04:39:00
Charles De Gaulle (CDG) - Leipzig Halle (LEJ) QY1263 2018-09-11 23:12:00
???? QY939 2018-09-11 21:46:00
???? QY938 2018-09-11 06:54:00
???? N/A 2018-09-11 05:18:00
Leipzig Halle (LEJ) - Charles De Gaulle (CDG) QY1264 2018-09-11 03:06:00
Charles De Gaulle (CDG) - Leipzig Halle (LEJ) QY1263 2018-09-11 01:49:00
Time Lat Lon Altitude Heading Speed Vertical Rate
2018-03-14 12:00:04 GMT 50.911652 4.499792 275 246 134 -704
2018-03-14 11:59:54 GMT 50.914413 4.509659 425 246 132 -768
2018-03-14 11:59:43 GMT 50.916927 4.518433 525 246 129 -704
2018-03-14 11:59:32 GMT 50.919617 4.527852 650 246 125 -576
2018-03-14 11:59:23 GMT 50.921909 4.535446 775 246 127 -640
2018-03-14 11:59:19 GMT 50.923187 4.539803 825 246 130 -1024
2018-03-14 11:59:14 GMT 50.924236 4.544220 900 246 133 -512
2018-03-14 11:59:09 GMT 50.925449 4.547729 925 246 136 -704
2018-03-14 11:59:03 GMT 50.926891 4.553223 1,000 245 136 -640
2018-03-14 11:58:58 GMT 50.928242 4.557724 1,075 246 134 -704
2018-03-14 11:58:53 GMT 50.929592 4.562225 1,125 246 132 -320
2018-03-14 11:58:49 GMT 50.930969 4.566675 1,200 246 133 -960
2018-03-14 11:58:43 GMT 50.932251 4.572020 1,250 246 132 -704
2018-03-14 11:58:37 GMT 50.933735 4.576416 1,325 246 132 -704
2018-03-14 11:58:32 GMT 50.934998 4.580853 1,400 246 130 -704
2018-03-14 11:58:28 GMT 50.936249 4.585114 1,450 246 130 -640
2018-03-14 11:58:22 GMT 50.937645 4.590302 1,500 246 131 -832
2018-03-14 11:58:17 GMT 50.938934 4.594735 1,575 246 132 -640
2018-03-14 11:58:11 GMT 50.940346 4.599380 1,625 248 139 -704
2018-03-14 11:58:07 GMT 50.941635 4.604088 1,700 247 141 -1024
2018-03-14 11:57:59 GMT 50.943832 4.611734 1,825 244 143 -960
2018-03-14 11:57:56 GMT 50.944519 4.613664 1,850 243 146 -960
2018-03-14 11:57:49 GMT 50.946957 4.620132 2,025 232 145 -1280
2018-03-14 11:57:45 GMT 50.948639 4.624353 2,075 229 144 -576
2018-03-14 11:57:41 GMT 50.950699 4.627397 2,100 227 142 128
2018-03-14 11:57:38 GMT 50.951935 4.629669 2,100 227 143 192
2018-03-14 11:57:35 GMT 50.953098 4.631271 2,100 228 144 0
2018-03-14 11:57:28 GMT 50.956406 4.637527 2,075 227 149 -192
2018-03-14 11:57:25 GMT 50.957840 4.639868 2,075 227 149 0
2018-03-14 11:57:22 GMT 50.959213 4.641575 2,075 228 151 64
2018-03-14 11:57:17 GMT 50.961620 4.645691 2,075 228 157 -128
2018-03-14 11:57:12 GMT 50.963974 4.649963 2,075 228 162 -384
2018-03-14 11:57:07 GMT 50.966740 4.654312 2,125 226 166 -384
2018-03-14 11:57:04 GMT 50.968464 4.657745 2,100 225 166 -192
2018-03-14 11:56:57 GMT 50.972626 4.663696 2,125 222 164 192
2018-03-14 11:56:54 GMT 50.974140 4.665985 2,125 219 160 256
2018-03-14 11:56:49 GMT 50.977570 4.669189 2,100 205 158 -128
2018-03-14 11:56:46 GMT 50.979309 4.670639 2,100 202 158 -256
2018-03-14 11:56:43 GMT 50.981869 4.671860 2,100 189 159 -64
2018-03-14 11:56:38 GMT 50.984573 4.672530 2,100 187 161 128
2018-03-14 11:56:35 GMT 50.986431 4.672928 2,100 186 161 128
2018-03-14 11:56:32 GMT 50.988876 4.673272 2,100 184 166 -256
2018-03-14 11:56:26 GMT 50.994251 4.673843 2,100 184 171 128
2018-03-14 11:56:23 GMT 50.996201 4.674089 2,100 184 174 128
2018-03-14 11:56:20 GMT 50.998260 4.674237 2,100 184 174 64
2018-03-14 11:56:16 GMT 51.001373 4.674534 2,100 184 174 -64
2018-03-14 11:56:13 GMT 51.005146 4.674911 2,075 183 175 -256
2018-03-14 11:56:10 GMT 51.007195 4.675064 2,075 183 175 -256
2018-03-14 11:56:07 GMT 51.010078 4.675293 2,100 183 217 -1856
2018-03-14 11:56:04 GMT 51.011261 4.675425 2,100 183 181 128
2018-03-14 11:56:00 GMT 51.014557 4.675722 2,100 184 188 -256
2018-03-14 11:55:57 GMT 51.016739 4.675903 2,100 184 189 -448
2018-03-14 11:55:54 GMT 51.020508 4.676208 2,150 183 198 -1088
2018-03-14 11:55:51 GMT 51.022465 4.676361 2,200 183 200 -1344
2018-03-14 11:55:48 GMT 51.025452 4.676538 2,250 183 204 -1216
2018-03-14 11:55:43 GMT 51.030422 4.676895 2,400 183 214 -1472
2018-03-14 11:55:39 GMT 51.034882 4.677355 2,500 183 215 -1728
2018-03-14 11:55:35 GMT 51.038383 4.677582 3,250 182 259 -1216
2018-03-14 11:55:32 GMT 51.041199 4.677800 2,700 183 220 -1728
2018-03-14 11:55:29 GMT 51.045410 4.678097 2,825 183 223 -2112
2018-03-14 11:55:23 GMT 51.050346 4.678497 2,975 183 229 -1920
2018-03-14 11:55:18 GMT 51.055756 4.678840 3,150 183 235 -1536
2018-03-14 11:55:14 GMT 51.061707 4.679108 3,250 182 246 -1536
2018-03-14 11:55:11 GMT 51.063381 4.679260 3,300 182 248 -1280
2018-03-14 11:55:08 GMT 51.067474 4.679433 3,400 182 253 -1472
2018-03-14 11:55:04 GMT 51.072273 4.679794 3,525 182 258 -1152
2018-03-14 11:55:00 GMT 51.076218 4.679953 3,575 182 259 -1216
2018-03-14 11:54:57 GMT 51.081024 4.680176 3,650 182 262 -1408
2018-03-14 11:54:54 GMT 51.084797 4.680328 3,800 182 271 -1536
2018-03-14 11:54:50 GMT 51.089497 4.680557 3,850 182 272 -1536
2018-03-14 11:54:47 GMT 51.093109 4.680770 3,875 182 273 -1472
2018-03-14 11:54:42 GMT 51.100250 4.681015 4,025 182 280 -1728
2018-03-14 11:54:39 GMT 51.102348 4.681168 4,150 182 283 -1920
2018-03-14 11:54:36 GMT 51.107117 4.681289 4,200 182 285 -2048
2018-03-14 11:54:33 GMT 51.111374 4.681512 4,375 182 289 -1792
2018-03-14 11:54:29 GMT 51.117508 4.681660 4,500 181 292 -2624
2018-03-14 11:54:26 GMT 51.120438 4.681735 5,300 182 301 -2240
2018-03-14 11:54:22 GMT 51.126137 4.681931 4,800 181 295 -3328
2018-03-14 11:54:19 GMT 51.130280 4.682032 4,975 181 297 -3072
2018-03-14 11:54:15 GMT 51.134933 4.682159 5,300 182 300 -2624
2018-03-14 11:54:12 GMT 51.139961 4.682388 5,325 182 301 -2368
2018-03-14 11:54:09 GMT 51.144745 4.682551 5,450 182 302 -2368
2018-03-14 11:54:05 GMT 51.148991 4.682770 5,700 182 304 -2624
2018-03-14 11:54:02 GMT 51.155365 4.683145 5,725 182 304 -2624
2018-03-14 11:53:58 GMT 51.159653 4.683380 5,900 182 307 -1984
2018-03-14 11:53:55 GMT 51.163788 4.683590 5,950 182 308 -2048
2018-03-14 11:53:51 GMT 51.169334 4.683762 6,100 182 309 -2112
2018-03-14 11:53:45 GMT 51.178848 4.684184 6,400 182 313 -2112
2018-03-14 11:53:41 GMT 51.183861 4.684372 6,475 182 314 -2176
2018-03-14 11:53:38 GMT 51.189026 4.684525 6,575 182 315 -2176
2018-03-14 11:53:34 GMT 51.194286 4.684753 6,725 181 317 -2624
2018-03-14 11:53:30 GMT 51.199539 4.684852 6,875 181 317 -2624
2018-03-14 11:53:25 GMT 51.206856 4.685059 7,375 182 319 -2496
2018-03-14 11:53:22 GMT 51.210983 4.685149 7,200 181 318 -2496
2018-03-14 11:53:19 GMT 51.215656 4.685287 8,025 182 319 -2176
2018-03-14 11:53:15 GMT 51.221802 4.685516 7,525 182 319 -2432
2018-03-14 11:53:10 GMT 51.229340 4.685743 7,775 182 327 -192
2018-03-14 11:53:06 GMT 51.235062 4.685966 7,900 182 320 -1600
2018-03-14 11:53:03 GMT 51.240875 4.686189 7,975 182 321 -1344
2018-03-14 11:52:58 GMT 51.247101 4.686411 8,050 182 327 -192
2018-03-14 11:52:54 GMT 51.252960 4.686634 8,050 182 328 -192
2018-03-14 11:52:49 GMT 51.261200 4.687005 8,100 182 329 -256
2018-03-14 11:52:46 GMT 51.266628 4.687119 8,100 182 328 -256
2018-03-14 11:52:43 GMT 51.268250 4.687228 8,100 182 328 -256
2018-03-14 11:52:39 GMT 51.276764 4.687525 8,150 182 327 -512
2018-03-14 11:52:36 GMT 51.279968 4.687673 8,250 182 327 -512
2018-03-14 11:52:33 GMT 51.284412 4.687805 8,275 182 327 -576
2018-03-14 11:52:28 GMT 51.292328 4.688119 8,250 182 327 -1152
2018-03-14 11:52:24 GMT 51.299728 4.688416 8,300 182 328 -1216
2018-03-14 11:52:21 GMT 51.304943 4.688644 8,325 182 328 -896
2018-03-14 11:52:18 GMT 51.308247 4.688797 8,350 182 328 -1216
2018-03-14 11:52:13 GMT 51.315464 4.689026 8,475 182 328 -1216
2018-03-14 11:52:10 GMT 51.319885 4.689158 8,600 182 325 -1536
2018-03-14 11:52:06 GMT 51.325012 4.689381 8,725 181 325 -2176
2018-03-14 11:52:02 GMT 51.331970 4.689603 8,875 182 325 -2048
2018-03-14 11:51:57 GMT 51.339485 4.689789 8,925 181 328 -2624
2018-03-14 11:51:54 GMT 51.344139 4.689865 9,125 181 329 -2880
2018-03-14 11:51:51 GMT 51.347862 4.689941 9,200 181 331 -3136
2018-03-14 11:51:46 GMT 51.356186 4.689974 9,725 180 333 -3840
2018-03-14 11:51:43 GMT 51.361450 4.689974 9,675 180 333 -3840
2018-03-14 11:51:39 GMT 51.367813 4.689900 10,325 179 334 -4224
2018-03-14 11:51:35 GMT 51.373489 4.689826 11,125 179 333 -4288
2018-03-14 11:51:32 GMT 51.379715 4.689752 10,550 179 333 -4288
2018-03-14 11:51:28 GMT 51.385059 4.689636 11,600 179 332 -4224
2018-03-14 11:51:24 GMT 51.388916 4.689529 11,225 179 334 -3776
2018-03-14 11:51:21 GMT 51.395187 4.689381 11,425 179 334 -3904
2018-03-14 11:51:17 GMT 51.401276 4.689232 11,825 179 334 -3776
2018-03-14 11:51:14 GMT 51.404755 4.689158 11,625 179 334 -3904
2018-03-14 11:51:11 GMT 51.412060 4.689026 11,975 179 333 -4352
2018-03-14 11:51:07 GMT 51.416931 4.688861 12,475 179 332 -4480
2018-03-14 11:51:03 GMT 51.423065 4.688712 13,050 179 332 -4224
2018-03-14 11:51:00 GMT 51.427002 4.688638 12,700 178 332 -3712
2018-03-14 11:50:57 GMT 51.432220 4.688490 13,000 179 334 -3328
2018-03-14 11:50:54 GMT 51.436729 4.688339 13,225 179 334 -3328
2018-03-14 11:50:51 GMT 51.441605 4.688193 13,700 179 335 -3328
2018-03-14 11:50:47 GMT 51.448517 4.688119 13,475 179 335 -3264
2018-03-14 11:50:44 GMT 51.452187 4.688034 13,950 182 337 -3264
2018-03-14 11:50:40 GMT 51.458424 4.688187 13,775 182 337 -3264
2018-03-14 11:50:37 GMT 51.463165 4.688341 14,125 184 338 -3264
2018-03-14 11:50:34 GMT 51.468433 4.688797 14,175 184 337 -3264
2018-03-14 11:50:31 GMT 51.472019 4.689255 14,525 190 338 -3264
2018-03-14 11:50:27 GMT 51.477604 4.690552 14,525 190 338 -3264
2018-03-14 11:50:24 GMT 51.484680 4.693241 14,775 196 340 -3264
2018-03-14 11:50:21 GMT 51.487007 4.693909 15,525 199 340 -3200
2018-03-14 11:50:18 GMT 51.493481 4.697037 15,100 202 341 -3200
2018-03-14 11:50:15 GMT 51.496582 4.699996 15,275 205 341 -3136
2018-03-14 11:50:12 GMT 51.500244 4.702000 15,925 211 342 -3072
2018-03-14 11:50:09 GMT 51.504559 4.705658 16,100 213 343 -3136
2018-03-14 11:50:06 GMT 51.509125 4.709497 15,925 216 344 -3136
2018-03-14 11:50:03 GMT 51.512333 4.713745 16,175 224 345 -2944
2018-03-14 11:50:00 GMT 51.516724 4.718405 16,000 219 344 -3136
2018-03-14 11:49:57 GMT 51.519733 4.723206 16,100 221 345 -3072
2018-03-14 11:49:54 GMT 51.525135 4.730377 16,400 239 378 -1728
2018-03-14 11:49:51 GMT 51.527088 4.734116 16,525 231 350 -2432
2018-03-14 11:49:47 GMT 51.530998 4.741898 17,150 239 368 -1408
2018-03-14 11:49:44 GMT 51.535049 4.750137 16,900 237 357 -1664
2018-03-14 11:49:41 GMT 51.538330 4.756635 16,850 237 357 -1664
2018-03-14 11:49:38 GMT 51.539566 4.761163 18,600 238 395 -4288
2018-03-14 11:49:34 GMT 51.543549 4.770145 17,050 239 368 -1408
2018-03-14 11:49:31 GMT 51.547211 4.779498 17,100 239 373 -1472
2018-03-14 11:49:28 GMT 51.548630 4.784397 17,125 239 374 -1536
2018-03-14 11:49:24 GMT 51.553066 4.796219 17,325 239 383 -2304
2018-03-14 11:49:21 GMT 51.555485 4.801102 17,450 239 397 -4224
2018-03-14 11:49:18 GMT 51.557968 4.808374 17,500 238 388 -2816
2018-03-14 11:49:14 GMT 51.562794 4.820633 18,375 238 396 -4288
2018-03-14 11:49:11 GMT 51.565750 4.827897 18,075 238 394 -4224
2018-03-14 11:49:08 GMT 51.568039 4.832945 18,175 238 395 -4288
2018-03-14 11:49:04 GMT 51.572849 4.845428 19,075 239 398 -4288
2018-03-14 11:49:01 GMT 51.575821 4.852914 18,950 239 398 -4288
2018-03-14 11:48:58 GMT 51.577469 4.857813 19,550 238 405 -4096
2018-03-14 11:48:55 GMT 51.580391 4.865494 19,550 238 405 -4096
2018-03-14 11:48:52 GMT 51.583931 4.875412 19,400 238 402 -4160
2018-03-14 11:48:49 GMT 51.586716 4.883052 20,425 238 407 -4096
2018-03-14 11:48:46 GMT 51.589645 4.888322 21,000 238 405 -4096
2018-03-14 11:48:42 GMT 51.594357 4.900894 20,075 238 409 -4032
2018-03-14 11:48:39 GMT 51.596924 4.908736 20,300 238 410 -3968
2018-03-14 11:48:36 GMT 51.599304 4.913858 24,475 239 413 -3968
2018-03-14 11:48:33 GMT 51.602692 4.921799 24,475 235 428 -5888
2018-03-14 11:48:30 GMT 51.606461 4.932251 20,900 238 424 -4160
2018-03-14 11:48:27 GMT 51.609009 4.940062 21,000 238 422 -4096
2018-03-14 11:48:23 GMT 51.612839 4.948120 21,450 238 429 -4480
2018-03-14 11:48:19 GMT 51.617569 4.961292 21,575 238 424 -4160
2018-03-14 11:48:16 GMT 51.620705 4.969254 21,800 238 427 -4352
2018-03-14 11:48:13 GMT 51.624069 4.977252 22,175 238 429 -4480
2018-03-14 11:48:10 GMT 51.626221 4.982671 22,700 238 430 -4544
2018-03-14 11:48:06 GMT 51.630936 4.993360 23,150 237 432 -5056
2018-03-14 11:48:03 GMT 51.633179 4.998854 22,900 236 433 -5376
2018-03-14 11:47:59 GMT 51.639633 5.014888 23,200 237 432 -5312
2018-03-14 11:47:56 GMT 51.642540 5.022812 28,675 236 433 -5440
2018-03-14 11:47:52 GMT 51.647518 5.033417 24,625 236 433 -5376
2018-03-14 11:47:49 GMT 51.650894 5.041314 24,125 236 433 -5312
2018-03-14 11:47:46 GMT 51.654316 5.049362 28,675 236 433 -5504
2018-03-14 11:47:43 GMT 51.656982 5.057200 28,675 234 419 -3136
2018-03-14 11:47:40 GMT 51.661205 5.065308 25,125 236 432 -5760
2018-03-14 11:47:37 GMT 51.664078 5.073011 25,175 236 432 -5824
2018-03-14 11:47:34 GMT 51.666321 5.078282 26,825 235 430 -6016
2018-03-14 11:47:31 GMT 51.670853 5.088897 25,825 235 431 -5824
2018-03-14 11:47:28 GMT 51.674801 5.096664 26,250 235 429 -6016
2018-03-14 11:47:25 GMT 51.677536 5.104783 26,825 235 428 -5888
2018-03-14 11:47:22 GMT 51.681782 5.112381 26,950 235 428 -5888
2018-03-14 11:47:19 GMT 51.684063 5.117569 27,450 235 428 -5888
2018-03-14 11:47:16 GMT 51.687973 5.128098 27,525 235 426 -5952
2018-03-14 11:47:13 GMT 51.692047 5.135811 29,250 234 416 -5248
2018-03-14 11:47:10 GMT 51.695656 5.143661 28,575 235 420 -5696
2018-03-14 11:47:07 GMT 51.698044 5.151400 28,400 235 422 -5888
2018-03-14 11:47:04 GMT 51.701431 5.156522 28,775 235 421 -5760
2018-03-14 11:47:01 GMT 51.705322 5.166766 28,900 235 421 -5760
2018-03-14 11:46:58 GMT 51.707977 5.171591 29,500 235 419 -5632
2018-03-14 11:46:55 GMT 51.711483 5.179214 29,700 235 418 -5568
2018-03-14 11:46:52 GMT 51.714981 5.186809 30,175 234 415 -5184
2018-03-14 11:46:49 GMT 51.718964 5.197053 30,075 234 415 -5184
2018-03-14 11:46:46 GMT 51.721481 5.202026 30,475 234 415 -5120
2018-03-14 11:46:43 GMT 51.726196 5.211825 30,850 234 415 -4736
2018-03-14 11:46:40 GMT 51.728848 5.219345 31,075 234 415 -4224
2018-03-14 11:46:37 GMT 51.732788 5.226894 31,100 234 416 -3712
2018-03-14 11:46:34 GMT 51.735874 5.234299 31,400 234 419 -3136
2018-03-14 11:46:31 GMT 51.739426 5.241666 31,800 234 420 -3008
2018-03-14 11:46:28 GMT 51.742718 5.249252 31,975 234 440 -2624
2018-03-14 11:46:25 GMT 51.747299 5.256735 31,925 234 424 -2752
2018-03-14 11:46:22 GMT 51.751053 5.266831 31,975 234 429 -2496
2018-03-14 11:46:19 GMT 51.753433 5.271953 32,075 234 429 -2496
2018-03-14 11:46:16 GMT 51.756729 5.277001 32,150 234 431 -2432
2018-03-14 11:46:13 GMT 51.761444 5.287319 32,325 234 435 -2368
2018-03-14 11:46:10 GMT 51.765156 5.295105 32,500 234 438 -2432
2018-03-14 11:46:06 GMT 51.769531 5.305634 32,675 234 442 -2752
2018-03-14 11:46:03 GMT 51.772045 5.311050 32,775 234 444 -2944
2018-03-14 11:46:00 GMT 51.776516 5.321732 32,950 235 448 -3840
2018-03-14 11:45:57 GMT 51.779819 5.327148 33,250 235 448 -3840
2018-03-14 11:45:54 GMT 51.784058 5.337982 34,450 236 447 -5632
2018-03-14 11:45:51 GMT 51.787308 5.346036 33,550 236 447 -5632
2018-03-14 11:45:48 GMT 51.791645 5.354462 34,125 236 445 -6080
2018-03-14 11:45:43 GMT 51.797195 5.367935 34,450 239 436 -6016
2018-03-14 11:45:40 GMT 51.800724 5.376282 34,975 239 433 -5888
2018-03-14 11:45:37 GMT 51.802818 5.381775 35,250 238 436 -6080
2018-03-14 11:45:34 GMT 51.807148 5.392914 35,400 239 434 -6016
2018-03-14 11:45:31 GMT 51.809784 5.401116 35,675 240 431 -5696
2018-03-14 11:45:28 GMT 51.812733 5.409546 36,875 250 419 -4544
2018-03-14 11:45:25 GMT 51.816055 5.417819 36,300 245 424 -5312
2018-03-14 11:45:22 GMT 51.817657 5.423460 36,650 247 422 -5184
2018-03-14 11:45:19 GMT 51.820496 5.435189 37,250 270 425 -64
2018-03-14 11:45:16 GMT 51.822975 5.443954 37,075 250 419 -4544
2018-03-14 11:45:13 GMT 51.825119 5.452708 37,525 254 416 -3328
2018-03-14 11:45:10 GMT 51.826355 5.458572 37,575 255 416 -3136
2018-03-14 11:45:07 GMT 51.828232 5.470598 37,875 257 418 -1984
2018-03-14 11:45:04 GMT 51.830006 5.479584 37,825 258 418 -1664
2018-03-14 11:45:00 GMT 51.831680 5.491867 38,000 263 419 -192
2018-03-14 11:44:57 GMT 51.832535 5.501107 37,950 262 419 -384
2018-03-14 11:44:54 GMT 51.833405 5.510178 37,975 264 420 -64
2018-03-14 11:44:51 GMT 51.834240 5.522766 38,000 265 419 -64
2018-03-14 11:44:48 GMT 51.834568 5.528870 38,000 267 419 -64
2018-03-14 11:44:45 GMT 51.834801 5.535278 38,000 269 419 0
2018-03-14 11:44:41 GMT 51.835190 5.550842 38,000 269 420 0
2018-03-14 11:44:38 GMT 51.835312 5.560226 38,000 269 419 0
2018-03-14 11:44:35 GMT 51.835358 5.566330 38,000 269 419 0
2018-03-14 11:44:32 GMT 51.835510 5.575784 38,000 269 420 0
2018-03-14 11:44:29 GMT 51.835590 5.585403 38,000 269 420 0
2018-03-14 11:44:26 GMT 51.835732 5.597687 38,000 269 420 64
2018-03-14 11:44:23 GMT 51.835876 5.607184 38,000 270 422 0
2018-03-14 11:44:19 GMT 51.835964 5.616455 38,000 270 420 0
2018-03-14 11:44:16 GMT 51.836105 5.626113 38,000 270 422 0
2018-03-14 11:44:13 GMT 51.836197 5.635376 38,000 270 421 0
2018-03-14 11:44:10 GMT 51.836334 5.647964 38,000 270 423 64
2018-03-14 11:44:07 GMT 51.836475 5.660400 38,000 270 422 64
2018-03-14 11:44:04 GMT 51.836521 5.666962 38,000 270 422 0
2018-03-14 11:44:01 GMT 51.836662 5.679474 38,000 270 422 64
2018-03-14 11:43:58 GMT 51.836754 5.685806 38,000 270 422 0
2018-03-14 11:43:55 GMT 51.836838 5.695075 38,000 270 422 0
2018-03-14 11:43:52 GMT 51.836941 5.704727 38,000 270 422 64
2018-03-14 11:43:49 GMT 51.837032 5.710831 38,000 270 423 64
2018-03-14 11:43:46 GMT 51.837173 5.723419 38,000 270 423 64
2018-03-14 11:43:43 GMT 51.837269 5.729980 38,000 270 423 64
2018-03-14 11:43:40 GMT 51.837387 5.745553 38,000 270 423 0
2018-03-14 11:43:37 GMT 51.837479 5.751714 38,000 270 423 -64
2018-03-14 11:43:34 GMT 51.837593 5.761261 38,000 270 423 -64
2018-03-14 11:43:30 GMT 51.837685 5.774155 38,000 270 423 -64
2018-03-14 11:43:27 GMT 51.837845 5.783337 38,000 270 424 0
2018-03-14 11:43:24 GMT 51.837917 5.792999 38,000 270 423 0
2018-03-14 11:43:20 GMT 51.838058 5.805435 38,000 270 424 0
2018-03-14 11:43:17 GMT 51.838165 5.814885 38,000 270 424 0
2018-03-14 11:43:14 GMT 51.838257 5.827802 38,000 270 424 0
2018-03-14 11:43:11 GMT 51.838348 5.834037 38,000 270 424 64
2018-03-14 11:43:08 GMT 51.838478 5.843430 38,000 270 424 64
2018-03-14 11:43:05 GMT 51.838531 5.853115 38,000 270 424 128
2018-03-14 11:43:02 GMT 51.838615 5.862350 38,000 270 424 128
2018-03-14 11:42:59 GMT 51.838715 5.868926 38,000 270 425 0
2018-03-14 11:42:56 GMT 51.838802 5.881424 38,000 270 425 -64
2018-03-14 11:42:53 GMT 51.838848 5.887756 38,000 270 425 -64
2018-03-14 11:42:50 GMT 51.838943 5.897134 38,000 270 424 -64
2018-03-14 11:42:47 GMT 51.839035 5.906906 38,000 270 424 128
2018-03-14 11:42:44 GMT 51.839127 5.916286 38,000 270 424 0
2018-03-14 11:42:40 GMT 51.839268 5.932236 38,000 270 424 64
2018-03-14 11:42:37 GMT 51.839355 5.941599 38,000 270 424 64
2018-03-14 11:42:34 GMT 51.839409 5.951233 38,000 270 424 0
2018-03-14 11:42:31 GMT 51.839500 5.957336 38,000 270 425 -64
2018-03-14 11:42:28 GMT 51.839584 5.967061 38,000 270 425 -64
2018-03-14 11:42:25 GMT 51.839642 5.976486 38,000 270 424 0
2018-03-14 11:42:22 GMT 51.839722 5.985990 38,000 270 424 0
2018-03-14 11:42:19 GMT 51.839828 5.995560 38,000 270 424 64
2018-03-14 11:42:16 GMT 51.839905 6.004993 38,000 270 424 64
2018-03-14 11:42:13 GMT 51.839996 6.017613 38,000 270 425 64
2018-03-14 11:42:10 GMT 51.840042 6.023848 38,000 270 424 64
2018-03-14 11:42:07 GMT 51.840134 6.036468 38,000 270 425 64
2018-03-14 11:42:04 GMT 51.840179 6.042852 38,000 270 425 0
2018-03-14 11:42:01 GMT 51.840317 6.055620 38,000 270 425 0
2018-03-14 11:41:58 GMT 51.840385 6.065140 38,000 270 424 64
2018-03-14 11:41:55 GMT 51.840408 6.074549 38,000 270 425 0
2018-03-14 11:41:52 GMT 51.840546 6.087391 38,000 270 424 0
2018-03-14 11:41:49 GMT 51.840591 6.093626 38,000 270 424 0
2018-03-14 11:41:46 GMT 51.840664 6.102982 38,000 270 424 0
2018-03-14 11:41:43 GMT 51.840729 6.112630 38,000 270 424 0
2018-03-14 11:41:40 GMT 51.840805 6.122055 38,000 270 424 64
2018-03-14 11:41:37 GMT 51.840866 6.131707 38,000 270 424 64
2018-03-14 11:41:34 GMT 51.840912 6.137794 38,000 270 424 -64
2018-03-14 11:41:31 GMT 51.841003 6.150414 38,000 270 424 -64
2018-03-14 11:41:28 GMT 51.841084 6.160126 38,000 270 424 0
2018-03-14 11:41:24 GMT 51.841179 6.172638 38,000 270 424 0
2018-03-14 11:41:21 GMT 51.841232 6.182185 38,000 270 424 0
2018-03-14 11:41:18 GMT 51.841270 6.191711 38,000 270 424 0
2018-03-14 11:41:15 GMT 51.841370 6.201040 38,000 270 423 0
2018-03-14 11:41:12 GMT 51.841412 6.210632 38,000 270 423 0
2018-03-14 11:41:08 GMT 51.841461 6.220192 38,000 270 423 64
2018-03-14 11:41:05 GMT 51.841549 6.229630 38,000 270 423 0
2018-03-14 11:41:02 GMT 51.841599 6.239121 38,000 270 423 0
2018-03-14 11:40:59 GMT 51.841644 6.251815 38,000 270 421 -64
2018-03-14 11:40:56 GMT 51.841736 6.261215 38,000 270 423 0
2018-03-14 11:40:52 GMT 51.841782 6.273727 38,000 270 423 0
2018-03-14 11:40:49 GMT 51.841827 6.283066 38,000 270 423 0
2018-03-14 11:40:46 GMT 51.841873 6.292725 38,000 270 423 -64
2018-03-14 11:40:43 GMT 51.841965 6.302218 38,000 270 423 -64
2018-03-14 11:40:40 GMT 51.842010 6.314763 38,000 270 423 0
2018-03-14 11:40:37 GMT 51.842056 6.320999 38,000 270 422 0
2018-03-14 11:40:34 GMT 51.842110 6.330643 38,000 270 423 0
2018-03-14 11:40:31 GMT 51.842148 6.340076 38,000 270 423 64
2018-03-14 11:40:28 GMT 51.842201 6.349640 38,000 270 423 64
2018-03-14 11:40:25 GMT 51.842239 6.358857 38,000 270 422 64
2018-03-14 11:40:22 GMT 51.842293 6.368408 38,000 270 422 64
2018-03-14 11:40:19 GMT 51.842293 6.374588 38,000 270 422 0
2018-03-14 11:40:16 GMT 51.842342 6.387253 38,000 270 422 -64
2018-03-14 11:40:13 GMT 51.842422 6.396864 38,000 270 422 64
2018-03-14 11:40:10 GMT 51.842480 6.406174 38,000 270 422 0
2018-03-14 11:40:07 GMT 51.842514 6.415570 38,000 270 422 -64
2018-03-14 11:40:04 GMT 51.842525 6.425018 38,000 270 422 0
2018-03-14 11:40:01 GMT 51.842560 6.434574 38,000 270 422 0
2018-03-14 11:39:58 GMT 51.842621 6.444092 38,000 270 422 64
2018-03-14 11:39:55 GMT 51.842651 6.453429 38,000 270 422 0
2018-03-14 11:39:52 GMT 51.842712 6.462708 38,000 270 422 0
2018-03-14 11:39:49 GMT 51.842743 6.472283 38,000 270 422 0
2018-03-14 11:39:46 GMT 51.842758 6.481705 38,000 270 422 0
2018-03-14 11:39:43 GMT 51.842808 6.488113 38,000 270 422 64
2018-03-14 11:39:40 GMT 51.842854 6.500626 38,000 270 422 0
2018-03-14 11:39:37 GMT 51.842926 6.510068 38,000 270 422 -64
2018-03-14 11:39:34 GMT 51.842926 6.516377 38,000 270 422 -64
2018-03-14 11:39:31 GMT 51.842995 6.525879 38,000 270 422 -64
2018-03-14 11:39:28 GMT 51.843040 6.538391 38,000 270 422 64
2018-03-14 11:39:25 GMT 51.843086 6.548004 38,000 270 422 0
2018-03-14 11:39:22 GMT 51.843109 6.553939 38,000 270 421 0
2018-03-14 11:39:19 GMT 51.843178 6.563568 38,000 270 422 0
2018-03-14 11:39:16 GMT 51.843201 6.573090 38,000 270 422 0
2018-03-14 11:39:13 GMT 51.843227 6.582489 38,000 270 422 0
2018-03-14 11:39:10 GMT 51.843273 6.594925 38,000 270 421 0
2018-03-14 11:39:07 GMT 51.843338 6.604565 38,000 270 421 0
2018-03-14 11:39:04 GMT 51.843338 6.610726 38,000 270 421 0
2018-03-14 11:39:01 GMT 51.843365 6.620026 38,000 270 421 0
2018-03-14 11:38:58 GMT 51.843410 6.632614 38,000 270 421 0
2018-03-14 11:38:55 GMT 51.843475 6.642200 38,000 270 421 0
2018-03-14 11:38:52 GMT 51.843506 6.651611 38,000 270 421 0
2018-03-14 11:38:49 GMT 51.843552 6.664047 38,000 270 421 0
2018-03-14 11:38:46 GMT 51.843567 6.667365 38,000 270 421 0
2018-03-14 11:38:43 GMT 51.843552 6.676712 38,000 270 421 -64
2018-03-14 11:38:40 GMT 51.843597 6.686249 38,000 270 421 0
2018-03-14 11:38:36 GMT 51.843613 6.698765 38,000 270 421 -64
2018-03-14 11:38:33 GMT 51.843658 6.711162 38,000 270 421 0
2018-03-14 11:38:30 GMT 51.843693 6.720657 38,000 270 421 -64
2018-03-14 11:38:27 GMT 51.843704 6.730091 38,000 270 421 -64
2018-03-14 11:38:24 GMT 51.843739 6.739502 38,000 270 421 0
2018-03-14 11:38:21 GMT 51.843784 6.745758 38,025 270 421 0
2018-03-14 11:38:18 GMT 51.843796 6.755330 38,000 270 421 0
2018-03-14 11:38:14 GMT 51.843876 6.770859 38,000 270 421 64
2018-03-14 11:38:11 GMT 51.843887 6.780346 38,000 270 421 0
2018-03-14 11:38:08 GMT 51.843933 6.786433 38,000 270 421 0
2018-03-14 11:38:05 GMT 51.843933 6.799052 38,000 270 421 64
2018-03-14 11:38:02 GMT 51.843979 6.805214 38,000 270 421 0
2018-03-14 11:37:59 GMT 51.844017 6.821213 38,000 270 421 0
2018-03-14 11:37:55 GMT 51.844070 6.830453 38,000 270 421 0
2018-03-14 11:37:52 GMT 51.844109 6.839752 38,000 270 421 64
2018-03-14 11:37:49 GMT 51.844116 6.849456 38,000 270 421 0
2018-03-14 11:37:46 GMT 51.844162 6.855469 38,000 270 421 0
2018-03-14 11:37:43 GMT 51.844204 6.865082 38,000 270 421 0
2018-03-14 11:37:40 GMT 51.844250 6.877670 38,000 270 421 0
2018-03-14 11:37:37 GMT 51.844250 6.883926 38,000 270 421 0
2018-03-14 11:37:33 GMT 51.844299 6.899637 38,000 270 421 0
2018-03-14 11:37:30 GMT 51.844341 6.909103 38,000 270 421 0
2018-03-14 11:37:27 GMT 51.844345 6.918343 38,000 270 421 0
2018-03-14 11:37:23 GMT 51.844391 6.927719 38,000 270 421 64
2018-03-14 11:37:20 GMT 51.844391 6.937347 38,000 271 420 0
2018-03-14 11:37:17 GMT 51.844345 6.949743 38,000 271 420 0
2018-03-14 11:37:14 GMT 51.844341 6.959000 38,000 271 420 0
2018-03-14 11:37:11 GMT 51.844296 6.965256 38,000 271 420 0
2018-03-14 11:37:08 GMT 51.844250 6.978073 38,000 271 420 0
2018-03-14 11:37:04 GMT 51.844109 6.990509 38,000 271 420 0
2018-03-14 11:37:00 GMT 51.843933 7.006234 38,000 271 420 0
2018-03-14 11:36:57 GMT 51.843876 7.009354 38,000 271 420 0
2018-03-14 11:36:53 GMT 51.843739 7.021713 38,000 271 419 0
2018-03-14 11:36:50 GMT 51.843643 7.034378 38,000 271 419 64
2018-03-14 11:36:47 GMT 51.843506 7.046738 38,000 271 419 64
2018-03-14 11:36:44 GMT 51.843456 7.053070 38,000 271 419 0
2018-03-14 11:36:41 GMT 51.843338 7.062353 38,000 272 419 0
2018-03-14 11:36:38 GMT 51.843246 7.068663 38,000 271 419 0
2018-03-14 11:36:35 GMT 51.843155 7.081282 38,000 271 419 0
2018-03-14 11:36:32 GMT 51.842995 7.090530 38,000 271 419 0
2018-03-14 11:36:29 GMT 51.842945 7.096939 38,000 271 419 0
2018-03-14 11:36:26 GMT 51.842789 7.112534 38,000 271 419 0
2018-03-14 11:36:23 GMT 51.842697 7.118695 38,000 271 419 0
2018-03-14 11:36:20 GMT 51.842606 7.125153 38,000 272 419 0
2018-03-14 11:36:17 GMT 51.842468 7.137624 38,000 272 419 0
2018-03-14 11:36:14 GMT 51.842342 7.146988 38,000 272 419 0
2018-03-14 11:36:11 GMT 51.842239 7.156331 38,000 271 419 -64
2018-03-14 11:36:08 GMT 51.842155 7.165680 38,000 272 419 0
2018-03-14 11:36:05 GMT 51.842056 7.174889 38,000 272 419 64
2018-03-14 11:36:01 GMT 51.841873 7.187657 38,000 272 419 64
2018-03-14 11:35:58 GMT 51.841782 7.196808 38,000 272 419 64
2018-03-14 11:35:55 GMT 51.841644 7.206363 38,000 272 419 64
2018-03-14 11:35:52 GMT 51.841549 7.215576 38,000 272 419 0
2018-03-14 11:35:49 GMT 51.841461 7.225218 38,000 272 419 0
2018-03-14 11:35:46 GMT 51.841316 7.234421 38,000 272 419 0
2018-03-14 11:35:43 GMT 51.841225 7.240753 38,000 272 419 0
2018-03-14 11:35:40 GMT 51.841084 7.253265 38,000 272 419 0
2018-03-14 11:35:37 GMT 51.840942 7.265778 38,000 272 419 0
2018-03-14 11:35:34 GMT 51.840851 7.271957 38,000 272 419 0
2018-03-14 11:35:31 GMT 51.840683 7.281486 38,000 272 419 0
2018-03-14 11:35:28 GMT 51.840637 7.287721 38,000 272 419 0
2018-03-14 11:35:25 GMT 51.840481 7.297058 38,000 272 419 0
2018-03-14 11:35:22 GMT 51.840385 7.309494 38,000 272 419 0
2018-03-14 11:35:19 GMT 51.840225 7.318825 38,000 272 419 0
2018-03-14 11:35:16 GMT 51.840107 7.328186 38,000 272 419 0
2018-03-14 11:35:12 GMT 51.839951 7.337531 38,000 272 419 0
2018-03-14 11:35:09 GMT 51.839813 7.349928 38,000 272 419 0
2018-03-14 11:35:06 GMT 51.839687 7.359543 38,000 272 419 -64
2018-03-14 11:35:03 GMT 51.839584 7.368857 38,000 272 419 0
2018-03-14 11:35:00 GMT 51.839409 7.378235 38,000 272 419 0
2018-03-14 11:34:57 GMT 51.839310 7.387489 38,000 272 419 0
2018-03-14 11:34:54 GMT 51.839218 7.393873 38,000 272 419 0
2018-03-14 11:34:51 GMT 51.839035 7.406270 38,000 272 419 0
2018-03-14 11:34:48 GMT 51.838943 7.415619 38,000 272 424 64
2018-03-14 11:34:45 GMT 51.838806 7.425199 38,000 272 419 0
2018-03-14 11:34:42 GMT 51.838715 7.431434 38,000 272 419 -64
2018-03-14 11:34:39 GMT 51.838570 7.440567 38,000 272 419 0
2018-03-14 11:34:35 GMT 51.838348 7.456228 38,000 272 419 64
2018-03-14 11:34:30 GMT 51.838150 7.472000 38,000 272 419 0
2018-03-14 11:34:26 GMT 51.837982 7.481244 38,000 272 419 0
2018-03-14 11:34:23 GMT 51.837872 7.490692 38,000 272 419 0
2018-03-14 11:34:20 GMT 51.837639 7.503204 38,000 272 419 0
2018-03-14 11:34:16 GMT 51.837502 7.515793 38,000 272 419 -64
2018-03-14 11:34:13 GMT 51.837360 7.521744 38,000 272 419 0
2018-03-14 11:34:10 GMT 51.837173 7.534409 38,000 272 419 0
2018-03-14 11:34:07 GMT 51.837128 7.540588 38,000 272 419 0
2018-03-14 11:34:04 GMT 51.836895 7.553101 38,000 272 419 -64
2018-03-14 11:34:01 GMT 51.836746 7.562380 38,000 272 419 0
2018-03-14 11:33:58 GMT 51.836617 7.571869 38,000 272 419 0
2018-03-14 11:33:54 GMT 51.836430 7.584457 38,000 272 419 0
2018-03-14 11:33:51 GMT 51.836334 7.590561 38,000 272 420 64
2018-03-14 11:33:48 GMT 51.836151 7.603149 38,000 272 419 -64
2018-03-14 11:33:45 GMT 51.836014 7.612486 38,000 272 419 0
2018-03-14 11:33:41 GMT 51.835785 7.625031 38,000 272 420 0
2018-03-14 11:33:38 GMT 51.835693 7.631341 38,000 272 419 64
2018-03-14 11:33:34 GMT 51.835449 7.647018 38,000 272 420 0
2018-03-14 11:33:31 GMT 51.835327 7.656209 38,000 272 420 0
2018-03-14 11:33:28 GMT 51.835190 7.662667 38,000 272 420 0
2018-03-14 11:33:24 GMT 51.834938 7.678299 38,000 272 420 0
2018-03-14 11:33:21 GMT 51.834824 7.687535 38,000 272 420 -64
2018-03-14 11:33:18 GMT 51.834595 7.700080 38,000 272 420 0
2018-03-14 11:33:15 GMT 51.834518 7.703323 38,000 272 420 0
2018-03-14 11:33:12 GMT 51.834412 7.712551 38,000 272 420 -64
2018-03-14 11:33:09 GMT 51.834183 7.725319 38,000 272 420 0
2018-03-14 11:33:06 GMT 51.834045 7.731480 38,000 272 420 0
2018-03-14 11:33:03 GMT 51.833916 7.740707 38,000 272 420 0
2018-03-14 11:33:00 GMT 51.833729 7.753448 38,000 272 419 0
2018-03-14 11:32:57 GMT 51.833588 7.762732 38,000 272 420 64
2018-03-14 11:32:54 GMT 51.833405 7.772369 38,000 272 420 0
2018-03-14 11:32:51 GMT 51.833263 7.778473 38,000 272 420 0
2018-03-14 11:32:48 GMT 51.833038 7.794206 38,000 272 420 0
2018-03-14 11:32:45 GMT 51.832947 7.800441 38,000 272 420 64
2018-03-14 11:32:42 GMT 51.832798 7.809830 38,000 272 420 -64
2018-03-14 11:32:39 GMT 51.832565 7.822418 38,000 272 420 0
2018-03-14 11:32:36 GMT 51.832474 7.828598 38,000 272 419 0
2018-03-14 11:32:33 GMT 51.832237 7.840958 38,000 272 420 0
2018-03-14 11:32:29 GMT 51.832077 7.850325 38,000 272 420 0
2018-03-14 11:32:26 GMT 51.831867 7.859726 38,000 272 419 0
2018-03-14 11:32:22 GMT 51.831680 7.872467 38,000 272 419 0
2018-03-14 11:32:19 GMT 51.831482 7.881725 38,000 272 419 0
2018-03-14 11:32:16 GMT 51.831390 7.887812 38,000 272 419 0
2018-03-14 11:32:13 GMT 51.831161 7.900580 38,000 272 420 -64
2018-03-14 11:32:09 GMT 51.830933 7.912903 38,000 272 419 64
2018-03-14 11:32:06 GMT 51.830795 7.919138 38,000 272 419 0
2018-03-14 11:32:03 GMT 51.830566 7.931684 38,000 272 420 0
2018-03-14 11:32:00 GMT 51.830429 7.937845 38,000 272 420 64
2018-03-14 11:31:57 GMT 51.830284 7.947388 38,000 272 420 64
2018-03-14 11:31:54 GMT 51.830051 7.959976 38,000 272 420 64
2018-03-14 11:31:50 GMT 51.829834 7.969393 38,000 273 428 -64
2018-03-14 11:31:47 GMT 51.829678 7.978821 38,000 272 420 0
2018-03-14 11:31:44 GMT 51.829445 7.991409 38,000 272 420 0
2018-03-14 11:31:41 GMT 51.829239 8.000645 38,000 272 420 64
2018-03-14 11:31:38 GMT 51.829075 8.010101 38,000 272 420 0
2018-03-14 11:31:35 GMT 51.828934 8.016357 38,000 272 420 64
2018-03-14 11:31:32 GMT 51.828781 8.025735 38,000 272 420 128
2018-03-14 11:31:29 GMT 51.828564 8.035126 38,000 272 420 -64
2018-03-14 11:31:26 GMT 51.828415 8.044590 38,000 272 420 -64
2018-03-14 11:31:23 GMT 51.828190 8.053970 38,000 272 420 0
2018-03-14 11:31:20 GMT 51.828003 8.063223 38,000 272 429 0
2018-03-14 11:31:17 GMT 51.827774 8.075768 38,000 272 421 0
2018-03-14 11:31:14 GMT 51.827682 8.082152 38,000 272 422 0
2018-03-14 11:31:11 GMT 51.827408 8.094548 38,000 272 421 -64
2018-03-14 11:31:07 GMT 51.827213 8.104095 38,000 272 423 0
2018-03-14 11:31:04 GMT 51.827042 8.113552 38,000 272 421 0
2018-03-14 11:31:01 GMT 51.826748 8.129196 38,000 272 421 -64
2018-03-14 11:30:58 GMT 51.826584 8.138791 38,000 272 421 0
2018-03-14 11:30:55 GMT 51.826401 8.144878 38,000 272 422 0
2018-03-14 11:30:52 GMT 51.826233 8.154221 38,000 272 422 0
2018-03-14 11:30:48 GMT 51.826035 8.163881 38,000 272 422 0
2018-03-14 11:30:45 GMT 51.825806 8.176426 38,000 272 422 0
2018-03-14 11:30:42 GMT 51.825630 8.185654 38,000 272 422 0
2018-03-14 11:30:39 GMT 51.825489 8.191986 38,000 272 422 0
2018-03-14 11:30:36 GMT 51.825256 8.201517 38,000 272 422 -64
2018-03-14 11:30:33 GMT 51.825115 8.210983 38,000 272 422 0
2018-03-14 11:30:30 GMT 51.824837 8.223572 38,000 272 423 0
2018-03-14 11:30:27 GMT 51.824699 8.229980 38,000 272 423 64
2018-03-14 11:30:24 GMT 51.824417 8.242493 38,000 272 423 0
2018-03-14 11:30:19 GMT 51.824112 8.258156 38,000 272 423 0
2018-03-14 11:30:16 GMT 51.823975 8.264614 38,000 272 424 0
2018-03-14 11:30:13 GMT 51.823746 8.277307 38,000 272 424 64
2018-03-14 11:30:10 GMT 51.823486 8.286667 38,000 272 424 0
2018-03-14 11:30:07 GMT 51.823334 8.296237 38,000 273 424 0
2018-03-14 11:30:03 GMT 51.823067 8.305511 38,000 273 424 0
2018-03-14 11:30:00 GMT 51.822838 8.318253 38,000 273 424 0
2018-03-14 11:29:57 GMT 51.822647 8.327711 38,000 273 426 0
2018-03-14 11:29:53 GMT 51.822327 8.340553 38,000 273 425 0
2018-03-14 11:29:50 GMT 51.822136 8.349838 38,000 273 424 64
2018-03-14 11:29:47 GMT 51.821960 8.359408 38,000 273 428 -64
2018-03-14 11:29:44 GMT 51.821716 8.368912 38,000 273 425 0
2018-03-14 11:29:40 GMT 51.821392 8.381500 38,000 273 425 0
2018-03-14 11:29:36 GMT 51.821228 8.391253 38,000 273 425 0
2018-03-14 11:29:33 GMT 51.820953 8.403873 38,000 273 429 0
2018-03-14 11:29:29 GMT 51.820679 8.416344 38,000 273 426 0
2018-03-14 11:29:26 GMT 51.820415 8.425751 38,000 273 425 0
2018-03-14 11:29:23 GMT 51.820229 8.432236 38,000 273 425 0
2018-03-14 11:29:19 GMT 51.819901 8.448115 38,000 273 426 0
2018-03-14 11:29:16 GMT 51.819717 8.457718 38,000 273 426 64
2018-03-14 11:29:13 GMT 51.819443 8.467267 38,000 273 426 64
2018-03-14 11:29:10 GMT 51.819298 8.476868 38,000 273 426 64
2018-03-14 11:29:07 GMT 51.819031 8.486196 38,000 273 421 0
2018-03-14 11:29:04 GMT 51.818893 8.492654 38,000 273 426 0
2018-03-14 11:29:01 GMT 51.818645 8.502197 38,000 273 426 0
2018-03-14 11:28:58 GMT 51.818413 8.514786 38,000 273 427 0
2018-03-14 11:28:55 GMT 51.818207 8.524351 38,000 273 427 0
2018-03-14 11:28:52 GMT 51.817947 8.533859 38,000 273 427 0
2018-03-14 11:28:48 GMT 51.817612 8.549961 38,000 273 427 0
2018-03-14 11:28:45 GMT 51.817429 8.556271 38,000 273 428 0
2018-03-14 11:28:41 GMT 51.817158 8.565674 38,000 273 427 0
2018-03-14 11:28:37 GMT 51.816875 8.578568 38,000 273 427 0
2018-03-14 11:28:34 GMT 51.816551 8.591309 38,000 273 427 0
2018-03-14 11:28:31 GMT 51.816410 8.597717 38,000 273 428 0
2018-03-14 11:28:27 GMT 51.816055 8.613652 38,000 273 429 0
2018-03-14 11:28:24 GMT 51.815872 8.619962 38,000 273 428 0
2018-03-14 11:28:20 GMT 51.815552 8.632582 38,000 273 428 0
2018-03-14 11:28:17 GMT 51.815277 8.645498 38,000 273 428 0
2018-03-14 11:28:13 GMT 51.815014 8.655090 38,000 273 428 64
2018-03-14 11:28:10 GMT 51.814774 8.664576 38,000 273 428 0
2018-03-14 11:28:07 GMT 51.814594 8.674011 38,000 273 428 0
2018-03-14 11:28:04 GMT 51.814270 8.683727 38,000 273 428 0
2018-03-14 11:27:59 GMT 51.813896 8.699799 38,000 273 429 0
2018-03-14 11:27:56 GMT 51.813675 8.709412 38,000 273 429 0
2018-03-14 11:27:53 GMT 51.813400 8.721957 38,000 273 429 0
2018-03-14 11:27:50 GMT 51.813217 8.728415 38,000 273 429 0
2018-03-14 11:27:47 GMT 51.812897 8.741183 38,000 273 429 0
2018-03-14 11:27:44 GMT 51.812714 8.747493 38,000 273 429 0
2018-03-14 11:27:41 GMT 51.812500 8.757095 38,000 273 429 0
2018-03-14 11:27:38 GMT 51.812176 8.769836 38,000 273 429 0
2018-03-14 11:27:35 GMT 51.811935 8.779561 38,025 273 429 0
2018-03-14 11:27:32 GMT 51.811710 8.789139 38,000 273 429 64
2018-03-14 11:27:29 GMT 51.811432 8.798713 38,000 273 429 0
2018-03-14 11:27:26 GMT 51.811199 8.808365 38,000 273 429 0
2018-03-14 11:27:22 GMT 51.810871 8.821259 38,000 273 430 0
2018-03-14 11:27:19 GMT 51.810608 8.830781 38,000 273 430 0
2018-03-14 11:27:15 GMT 51.810360 8.840179 38,000 273 430 0
2018-03-14 11:27:12 GMT 51.810104 8.850007 38,000 273 430 0
2018-03-14 11:27:09 GMT 51.809849 8.859711 38,000 273 430 0
2018-03-14 11:27:06 GMT 51.809521 8.872299 38,000 273 430 0
2018-03-14 11:27:03 GMT 51.809334 8.878784 38,000 273 430 0
2018-03-14 11:27:00 GMT 51.809055 8.891602 38,000 273 430 0
2018-03-14 11:26:57 GMT 51.808868 8.898087 38,000 273 431 0
2018-03-14 11:26:54 GMT 51.808453 8.910751 38,000 273 430 0
2018-03-14 11:26:51 GMT 51.808311 8.917313 38,000 273 430 0
2018-03-14 11:26:48 GMT 51.807983 8.930130 38,000 273 430 0
2018-03-14 11:26:45 GMT 51.807800 8.936462 38,000 273 430 0
2018-03-14 11:26:42 GMT 51.807426 8.949203 38,000 273 430 0
2018-03-14 11:26:39 GMT 51.807220 8.958831 38,000 273 430 0
2018-03-14 11:26:36 GMT 51.806961 8.968430 38,000 273 430 0
2018-03-14 11:26:32 GMT 51.806671 8.978057 38,000 273 430 0
2018-03-14 11:26:28 GMT 51.806305 8.990973 38,000 273 430 0
2018-03-14 11:26:24 GMT 51.805843 9.007034 38,000 273 430 0
2018-03-14 11:26:21 GMT 51.805618 9.016658 38,000 273 430 0
2018-03-14 11:26:17 GMT 51.805378 9.026260 38,000 273 429 0
2018-03-14 11:26:14 GMT 51.805115 9.035661 38,000 273 430 0
2018-03-14 11:26:11 GMT 51.804771 9.045258 38,000 273 430 0
2018-03-14 11:26:08 GMT 51.804565 9.054887 38,000 273 429 0
2018-03-14 11:26:05 GMT 51.804310 9.064560 38,000 273 430 0
2018-03-14 11:26:02 GMT 51.803982 9.077301 38,000 273 429 0
2018-03-14 11:25:59 GMT 51.803650 9.086881 38,000 273 429 64
2018-03-14 11:25:56 GMT 51.803513 9.093413 38,000 273 429 64
2018-03-14 11:25:53 GMT 51.803192 9.102859 38,000 273 429 -64
2018-03-14 11:25:50 GMT 51.802818 9.115601 38,000 273 429 0
2018-03-14 11:25:47 GMT 51.802551 9.125407 38,000 273 429 0
2018-03-14 11:25:43 GMT 51.802231 9.138101 38,000 273 429 0
2018-03-14 11:25:40 GMT 51.801979 9.147644 38,000 273 429 0
2018-03-14 11:25:37 GMT 51.801636 9.157401 38,000 273 429 -64
2018-03-14 11:25:34 GMT 51.801453 9.163711 38,000 273 429 0
2018-03-14 11:25:31 GMT 51.801086 9.176553 38,000 273 430 0
2018-03-14 11:25:28 GMT 51.800816 9.186096 38,000 273 429 0
2018-03-14 11:25:25 GMT 51.800583 9.195631 38,000 273 429 0
2018-03-14 11:25:21 GMT 51.800217 9.208399 38,000 273 430 0
2018-03-14 11:25:18 GMT 51.799931 9.218063 38,000 273 430 0
2018-03-14 11:25:15 GMT 51.799698 9.224625 38,000 273 430 0
2018-03-14 11:25:12 GMT 51.799393 9.234231 38,000 273 431 0
2018-03-14 11:25:09 GMT 51.799026 9.246925 38,000 273 430 0
2018-03-14 11:25:05 GMT 51.798767 9.256668 38,000 273 430 0
2018-03-14 11:25:02 GMT 51.798431 9.266151 38,000 273 430 -64
2018-03-14 11:24:58 GMT 51.797974 9.285452 38,000 273 430 0
2018-03-14 11:24:55 GMT 51.797745 9.291910 38,000 273 431 0
2018-03-14 11:24:52 GMT 51.797417 9.301300 38,000 273 431 0
2018-03-14 11:24:49 GMT 51.797333 9.304455 38,000 273 430 1088
2018-03-14 11:24:46 GMT 51.796814 9.320755 38,000 273 431 0
2018-03-14 11:24:43 GMT 51.796627 9.327087 38,000 273 431 0
2018-03-14 11:24:40 GMT 51.796188 9.343056 38,000 273 431 0
2018-03-14 11:24:37 GMT 51.796005 9.349439 38,000 273 431 64
2018-03-14 11:24:34 GMT 51.795776 9.355898 38,000 273 431 0
2018-03-14 11:24:30 GMT 51.795277 9.371948 38,000 273 431 -64
2018-03-14 11:24:27 GMT 51.794952 9.381805 38,025 273 431 -128
2018-03-14 11:24:23 GMT 51.794624 9.391327 38,025 273 431 128
2018-03-14 11:24:20 GMT 51.794312 9.400882 37,800 273 430 1152
2018-03-14 11:24:17 GMT 51.794067 9.410477 38,000 273 431 320
2018-03-14 11:24:14 GMT 51.793716 9.420331 37,900 273 430 576
2018-03-14 11:24:11 GMT 51.793396 9.432950 37,625 273 431 1344
2018-03-14 11:24:08 GMT 51.793041 9.442749 37,725 273 430 1024
2018-03-14 11:24:05 GMT 51.792671 9.455338 37,850 273 430 1152
2018-03-14 11:24:02 GMT 51.792484 9.461975 37,750 273 430 1152
2018-03-14 11:23:59 GMT 51.792160 9.471477 37,725 273 431 1152
2018-03-14 11:23:56 GMT 51.791878 9.481201 37,425 273 431 1216
2018-03-14 11:23:53 GMT 51.791645 9.487610 37,625 273 431 1344
2018-03-14 11:23:50 GMT 51.791271 9.500427 37,575 273 431 1344
2018-03-14 11:23:47 GMT 51.791039 9.506836 37,400 273 432 1216
2018-03-14 11:23:43 GMT 51.790604 9.522845 37,375 273 432 1024
2018-03-14 11:23:40 GMT 51.790295 9.532471 37,275 273 432 768
2018-03-14 11:23:37 GMT 51.790016 9.538956 37,275 273 432 768
2018-03-14 11:23:34 GMT 51.789734 9.548826 37,300 273 432 768
2018-03-14 11:23:31 GMT 51.789413 9.558402 37,075 274 418 832
2018-03-14 11:23:28 GMT 51.789047 9.568053 37,125 274 431 640
2018-03-14 11:23:25 GMT 51.788727 9.580746 37,175 273 431 640
2018-03-14 11:23:21 GMT 51.788269 9.593588 37,125 273 430 576
2018-03-14 11:23:17 GMT 51.787857 9.606579 37,100 273 429 576
2018-03-14 11:23:14 GMT 51.787628 9.612814 37,000 273 424 448
2018-03-14 11:23:11 GMT 51.787315 9.622498 37,050 274 425 256
2018-03-14 11:23:07 GMT 51.786896 9.635162 37,000 273 428 448
2018-03-14 11:23:04 GMT 51.786530 9.644883 36,675 273 423 576
2018-03-14 11:23:01 GMT 51.786209 9.657428 36,950 274 425 256
2018-03-14 11:22:58 GMT 51.785828 9.667053 36,925 273 424 320
2018-03-14 11:22:55 GMT 51.785595 9.673309 36,925 273 422 640
2018-03-14 11:22:52 GMT 51.785339 9.682889 36,925 274 421 896
2018-03-14 11:22:49 GMT 51.784927 9.695509 36,850 273 422 640
2018-03-14 11:22:45 GMT 51.784569 9.704895 36,825 273 421 640
2018-03-14 11:22:42 GMT 51.784199 9.717331 36,750 273 421 768
2018-03-14 11:22:39 GMT 51.783875 9.726835 36,775 273 420 960
2018-03-14 11:22:36 GMT 51.783546 9.736023 36,600 274 421 1408
2018-03-14 11:22:33 GMT 51.783234 9.745615 36,425 274 421 768
2018-03-14 11:22:30 GMT 51.783005 9.751851 36,600 274 421 1280
2018-03-14 11:22:27 GMT 51.782593 9.764396 36,500 274 421 1280
2018-03-14 11:22:24 GMT 51.782318 9.770483 36,450 274 421 1216
2018-03-14 11:22:21 GMT 51.782009 9.780121 36,400 274 421 832
2018-03-14 11:22:17 GMT 51.781540 9.795573 36,150 274 421 768
2018-03-14 11:22:14 GMT 51.781082 9.808193 36,275 274 420 832
2018-03-14 11:22:10 GMT 51.780800 9.817505 36,125 274 419 832
2018-03-14 11:22:07 GMT 51.780334 9.830093 36,175 274 419 832
2018-03-14 11:22:04 GMT 51.780029 9.839445 36,100 274 418 768
2018-03-14 11:22:00 GMT 51.779636 9.848785 36,025 274 418 832
2018-03-14 11:21:56 GMT 51.779263 9.861298 35,850 274 417 896
2018-03-14 11:21:53 GMT 51.778976 9.870770 35,975 274 417 960
2018-03-14 11:21:50 GMT 51.778660 9.879761 35,850 274 417 1216
2018-03-14 11:21:45 GMT 51.778145 9.892197 35,675 274 417 1088
2018-03-14 11:21:42 GMT 51.777775 9.904861 35,675 274 417 1088
2018-03-14 11:21:39 GMT 51.777420 9.913973 35,675 274 416 1024
2018-03-14 11:21:35 GMT 51.777008 9.926370 35,450 274 416 1024
2018-03-14 11:21:32 GMT 51.776657 9.935913 35,600 274 416 896
2018-03-14 11:21:29 GMT 51.776375 9.942093 35,525 274 415 1024
2018-03-14 11:21:26 GMT 51.776047 9.951238 35,425 274 411 960
2018-03-14 11:21:23 GMT 51.775635 9.963783 35,425 274 414 896
2018-03-14 11:21:19 GMT 51.775307 9.972992 35,275 274 410 1088
2018-03-14 11:21:15 GMT 51.774700 9.991455 35,300 274 413 960
2018-03-14 11:21:12 GMT 51.774536 9.994515 35,300 274 413 960
2018-03-14 11:21:09 GMT 51.774048 10.009766 35,175 274 412 896
2018-03-14 11:21:05 GMT 51.773724 10.015945 35,125 274 410 1088
2018-03-14 11:21:01 GMT 51.773254 10.031260 35,075 274 411 896
2018-03-14 11:20:58 GMT 51.772934 10.037347 35,050 274 410 1088
2018-03-14 11:20:55 GMT 51.772606 10.046539 35,000 274 413 2432
2018-03-14 11:20:52 GMT 51.772156 10.061769 34,925 274 410 1280
2018-03-14 11:20:49 GMT 51.771954 10.065002 34,900 274 410 1216
2018-03-14 11:20:46 GMT 51.771606 10.074092 34,550 274 410 1088
2018-03-14 11:20:42 GMT 51.771069 10.089417 34,700 274 409 1088
2018-03-14 11:20:38 GMT 51.770737 10.098440 34,650 274 409 1088
2018-03-14 11:20:34 GMT 51.770279 10.110540 33,775 274 410 1152
2018-03-14 11:20:30 GMT 51.769718 10.125961 34,425 274 409 1280
2018-03-14 11:20:27 GMT 51.769348 10.138245 34,425 274 409 1344
2018-03-14 11:20:21 GMT 51.768650 10.156250 34,175 274 409 1600
2018-03-14 11:20:18 GMT 51.768311 10.165397 34,175 274 410 1088
2018-03-14 11:20:15 GMT 51.768082 10.171633 34,125 274 410 704
2018-03-14 11:20:11 GMT 51.767719 10.180740 34,050 274 410 1088
2018-03-14 11:20:08 GMT 51.767254 10.192947 34,000 274 410 704
2018-03-14 11:20:05 GMT 51.766891 10.201993 33,925 274 410 1152
2018-03-14 11:20:01 GMT 51.766556 10.211334 33,825 274 410 1856
2018-03-14 11:19:58 GMT 51.766136 10.223465 33,825 274 409 1280
2018-03-14 11:19:54 GMT 51.765518 10.238738 33,700 274 409 1472
2018-03-14 11:19:50 GMT 51.765106 10.250764 33,600 274 410 1600
2018-03-14 11:19:46 GMT 51.764736 10.260162 33,425 274 410 1600
2018-03-14 11:19:42 GMT 51.764275 10.272141 33,300 274 412 2432
2018-03-14 11:19:37 GMT 51.763714 10.284576 33,275 274 410 1792
2018-03-14 11:19:33 GMT 51.763294 10.296707 33,050 274 411 2240
2018-03-14 11:19:30 GMT 51.762829 10.308838 33,000 274 412 2432
2018-03-14 11:19:27 GMT 51.762497 10.318241 32,800 274 416 1792
2018-03-14 11:19:24 GMT 51.762177 10.327454 32,700 274 417 1728
2018-03-14 11:19:20 GMT 51.761490 10.342811 32,500 274 417 1728
2018-03-14 11:19:16 GMT 51.761108 10.352249 32,425 274 416 1792
2018-03-14 11:19:12 GMT 51.760757 10.361444 32,300 274 417 1728
2018-03-14 11:19:09 GMT 51.760178 10.377121 32,225 274 417 1728
2018-03-14 11:19:05 GMT 51.759712 10.389404 31,950 274 418 1856
2018-03-14 11:19:01 GMT 51.759430 10.395737 31,800 274 418 1856
2018-03-14 11:18:58 GMT 51.758919 10.407944 31,900 274 418 1856
2018-03-14 11:18:55 GMT 51.758640 10.414352 31,375 274 419 1856
2018-03-14 11:18:52 GMT 51.758175 10.426865 31,725 274 419 1856
2018-03-14 11:18:49 GMT 51.757988 10.433121 31,100 274 421 1920
2018-03-14 11:18:45 GMT 51.757370 10.448740 31,500 274 420 1856
2018-03-14 11:18:41 GMT 51.756920 10.457916 31,100 274 420 1920
2018-03-14 11:18:38 GMT 51.756363 10.473757 31,250 274 421 1920
2018-03-14 11:18:35 GMT 51.756134 10.479918 31,150 274 421 1920
2018-03-14 11:18:32 GMT 51.755768 10.486005 31,050 274 421 1920
2018-03-14 11:18:29 GMT 51.755241 10.501938 30,800 274 422 1792
2018-03-14 11:18:25 GMT 51.754807 10.511244 30,800 274 422 1728
2018-03-14 11:18:22 GMT 51.754402 10.520782 30,750 274 422 1600
2018-03-14 11:18:19 GMT 51.754078 10.527115 30,625 274 422 1536
2018-03-14 11:18:16 GMT 51.753754 10.536408 30,600 274 422 1536
2018-03-14 11:18:13 GMT 51.753334 10.545731 30,450 274 421 1920
2018-03-14 11:18:09 GMT 51.752792 10.561647 30,300 274 422 1920
2018-03-14 11:18:06 GMT 51.752426 10.567734 29,975 274 422 1920
2018-03-14 11:18:03 GMT 51.752029 10.577087 30,175 274 422 1920
2018-03-14 11:18:00 GMT 51.751472 10.589676 29,700 274 422 1920
2018-03-14 11:17:57 GMT 51.751007 10.602493 29,925 274 422 1984
2018-03-14 11:17:54 GMT 51.750725 10.608597 29,850 274 424 2176
2018-03-14 11:17:51 GMT 51.750401 10.614929 29,750 274 428 2304
2018-03-14 11:17:48 GMT 51.749935 10.627518 29,500 274 424 2112
2018-03-14 11:17:44 GMT 51.749542 10.637067 29,550 274 424 2048
2018-03-14 11:17:41 GMT 51.749096 10.646439 29,425 274 424 2112
2018-03-14 11:17:38 GMT 51.748672 10.655996 29,000 274 426 2240
2018-03-14 11:17:35 GMT 51.748123 10.668690 29,150 274 425 2240
2018-03-14 11:17:32 GMT 51.747791 10.677948 28,925 274 426 2240
2018-03-14 11:17:29 GMT 51.747391 10.687470 28,700 274 428 2304
2018-03-14 11:17:26 GMT 51.746910 10.696945 28,725 274 427 2304
2018-03-14 11:17:23 GMT 51.746521 10.706771 28,675 274 427 2368
2018-03-14 11:17:20 GMT 51.746201 10.716124 28,600 274 428 2304
2018-03-14 11:17:17 GMT 51.745838 10.722656 28,425 274 429 2176
2018-03-14 11:17:13 GMT 51.745239 10.738690 28,300 274 429 1728
2018-03-14 11:17:10 GMT 51.744736 10.751458 28,200 274 429 1536
2018-03-14 11:17:07 GMT 51.744415 10.757694 28,125 274 429 1600
2018-03-14 11:17:03 GMT 51.743912 10.770684 28,025 274 429 1536
2018-03-14 11:17:00 GMT 51.743557 10.780258 27,925 274 428 1536
2018-03-14 11:16:56 GMT 51.743046 10.792999 27,825 274 426 1600
2018-03-14 11:16:53 GMT 51.742722 10.802381 27,775 274 427 1536
2018-03-14 11:16:50 GMT 51.742298 10.811768 27,625 274 427 1536
2018-03-14 11:16:47 GMT 51.741989 10.821311 27,450 274 425 1600
2018-03-14 11:16:44 GMT 51.741669 10.827843 27,400 274 426 1600
2018-03-14 11:16:41 GMT 51.741276 10.837250 27,475 274 426 1600
2018-03-14 11:16:38 GMT 51.740856 10.849838 27,325 274 425 1600
2018-03-14 11:16:35 GMT 51.740387 10.859391 27,275 274 425 1600
2018-03-14 11:16:32 GMT 51.740112 10.868819 27,175 274 424 1664
2018-03-14 11:16:29 GMT 51.739746 10.878321 26,975 274 423 1600
2018-03-14 11:16:26 GMT 51.739368 10.887909 27,050 274 418 1856
2018-03-14 11:16:23 GMT 51.739040 10.894318 26,900 274 418 1856
2018-03-14 11:16:20 GMT 51.738464 10.910018 26,700 274 421 1600
2018-03-14 11:16:17 GMT 51.738110 10.919342 26,525 274 421 1664
2018-03-14 11:16:13 GMT 51.737640 10.928724 26,600 274 421 1600
2018-03-14 11:16:10 GMT 51.737366 10.935034 26,475 274 420 1600
2018-03-14 11:16:06 GMT 51.736855 10.950699 26,475 274 420 1600
2018-03-14 11:15:59 GMT 51.736061 10.969391 26,225 274 418 1792
2018-03-14 11:15:56 GMT 51.735550 10.981827 26,175 274 417 1792
2018-03-14 11:15:52 GMT 51.735214 10.991079 26,000 274 418 1856
2018-03-14 11:15:48 GMT 51.734436 11.009785 25,900 274 417 1856
2018-03-14 11:15:45 GMT 51.734245 11.013031 25,850 274 417 1792
2018-03-14 11:15:39 GMT 51.733501 11.031647 25,550 274 415 1600
2018-03-14 11:15:35 GMT 51.732925 11.050019 25,425 274 415 1600
2018-03-14 11:15:32 GMT 51.732651 11.053285 25,350 274 414 1600
2018-03-14 11:15:29 GMT 51.732197 11.062546 25,250 274 406 1856
2018-03-14 11:15:25 GMT 51.731644 11.077856 25,275 274 412 1664
2018-03-14 11:15:22 GMT 51.731266 11.087112 25,175 274 412 1728
2018-03-14 11:15:19 GMT 51.730911 11.096117 25,100 274 411 1792
2018-03-14 11:15:16 GMT 51.730522 11.105270 25,000 274 411 1792
2018-03-14 11:15:12 GMT 51.729687 11.123734 24,800 274 410 1728
2018-03-14 11:15:09 GMT 51.729630 11.126701 24,725 274 409 1792
2018-03-14 11:15:06 GMT 51.729080 11.139097 24,675 274 409 1856
2018-03-14 11:15:03 GMT 51.728893 11.142120 24,600 274 408 1856
2018-03-14 11:15:00 GMT 51.728531 11.151272 24,400 274 407 1920
2018-03-14 11:14:57 GMT 51.728119 11.163371 24,400 274 407 1920
2018-03-14 11:14:54 GMT 51.727730 11.172409 24,225 274 406 1856
2018-03-14 11:14:51 GMT 51.727341 11.181335 24,225 274 406 1856
2018-03-14 11:14:47 GMT 51.726791 11.193658 24,025 274 398 1984
2018-03-14 11:14:42 GMT 51.726196 11.205684 23,900 274 404 1792
2018-03-14 11:14:37 GMT 51.725590 11.220779 23,700 274 398 1984
2018-03-14 11:14:34 GMT 51.725170 11.232681 23,075 274 399 1984
2018-03-14 11:14:31 GMT 51.724892 11.238708 23,475 274 389 2048
2018-03-14 11:14:28 GMT 51.724457 11.247550 23,475 274 395 2176
2018-03-14 11:14:25 GMT 51.724052 11.256485 23,400 274 398 1984
2018-03-14 11:14:21 GMT 51.723541 11.271453 23,225 274 400 1920
2018-03-14 11:14:18 GMT 51.723221 11.277466 23,125 274 399 1984
2018-03-14 11:14:15 GMT 51.722763 11.289343 23,075 274 399 1984
2018-03-14 11:14:11 GMT 51.722214 11.301294 22,875 275 386 2048
2018-03-14 11:14:08 GMT 51.721817 11.310120 22,850 274 398 1920
2018-03-14 11:14:05 GMT 51.721584 11.315994 22,775 274 397 1920
2018-03-14 11:14:01 GMT 51.720932 11.330839 22,550 274 395 2176
2018-03-14 11:13:58 GMT 51.720608 11.339493 22,350 274 395 2176
2018-03-14 11:13:55 GMT 51.720280 11.345367 22,425 274 395 2176
2018-03-14 11:13:52 GMT 51.719879 11.354444 22,075 274 394 2048
2018-03-14 11:13:49 GMT 51.719536 11.363144 22,175 274 395 2176
2018-03-14 11:13:46 GMT 51.719147 11.371815 22,100 274 394 2048
2018-03-14 11:13:43 GMT 51.718746 11.380768 21,975 274 393 1856
2018-03-14 11:13:40 GMT 51.718281 11.392517 21,775 274 392 1728
2018-03-14 11:13:35 GMT 51.717728 11.407075 21,700 274 391 1856
2018-03-14 11:13:32 GMT 51.717255 11.415863 21,600 274 390 1984
2018-03-14 11:13:29 GMT 51.716904 11.424594 21,475 275 382 2176
2018-03-14 11:13:25 GMT 51.716400 11.436025 21,350 274 388 2240
2018-03-14 11:13:21 GMT 51.716000 11.444778 21,175 274 387 2176
2018-03-14 11:13:18 GMT 51.715485 11.456146 20,975 274 387 2176
2018-03-14 11:13:14 GMT 51.715164 11.464901 21,000 275 386 2048
2018-03-14 11:13:09 GMT 51.714386 11.481975 20,775 275 385 2112
2018-03-14 11:13:04 GMT 51.713882 11.493629 20,600 275 384 2176
2018-03-14 11:13:01 GMT 51.713531 11.502075 20,475 275 383 2112
2018-03-14 11:12:58 GMT 51.712921 11.516493 20,400 275 383 2112
2018-03-14 11:12:53 GMT 51.712551 11.525040 20,250 275 382 2176
2018-03-14 11:12:48 GMT 51.711716 11.541901 19,700 275 381 2368
2018-03-14 11:12:43 GMT 51.711136 11.555984 19,825 275 381 2368
2018-03-14 11:12:39 GMT 51.710541 11.567416 19,650 275 380 2304
2018-03-14 11:12:36 GMT 51.710312 11.573132 19,575 275 380 2368
2018-03-14 11:12:33 GMT 51.709854 11.581497 19,450 275 379 2432
2018-03-14 11:12:27 GMT 51.708847 11.601191 19,150 275 378 2432
2018-03-14 11:12:24 GMT 51.708408 11.609497 18,950 275 377 2432
2018-03-14 11:12:20 GMT 51.707993 11.620865 18,900 275 377 2496
2018-03-14 11:12:17 GMT 51.707573 11.626358 18,650 275 376 2624
2018-03-14 11:12:14 GMT 51.707012 11.637497 18,625 275 376 2688
2018-03-14 11:12:11 GMT 51.706734 11.643143 18,550 276 375 2624
2018-03-14 11:12:08 GMT 51.705894 11.654205 18,125 283 372 2560
2018-03-14 11:12:05 GMT 51.705276 11.662284 18,250 281 372 2560
2018-03-14 11:12:02 GMT 51.704315 11.667852 18,075 290 367 2432
2018-03-14 11:11:59 GMT 51.702988 11.678615 17,975 286 370 2496
2018-03-14 11:11:55 GMT 51.700745 11.689008 17,650 291 367 2496
2018-03-14 11:11:52 GMT 51.699287 11.696854 17,625 292 365 2432
2018-03-14 11:11:49 GMT 51.697357 11.704448 17,550 294 365 2368
2018-03-14 11:11:46 GMT 51.695892 11.709347 17,400 301 359 2112
2018-03-14 11:11:41 GMT 51.691978 11.721573 17,200 301 359 2112
2018-03-14 11:11:37 GMT 51.688534 11.730881 17,025 303 357 2112
2018-03-14 11:11:34 GMT 51.685226 11.739655 16,975 306 355 2176
2018-03-14 11:11:31 GMT 51.682892 11.746166 16,875 307 354 2240
2018-03-14 11:11:28 GMT 51.680099 11.752625 16,775 309 351 2368
2018-03-14 11:11:25 GMT 51.676941 11.758637 16,250 309 345 2688
2018-03-14 11:11:22 GMT 51.673004 11.766803 16,500 309 350 2560
2018-03-14 11:11:18 GMT 51.668884 11.774894 16,300 309 349 2688
2018-03-14 11:11:15 GMT 51.666321 11.779125 16,200 309 347 2688
2018-03-14 11:11:11 GMT 51.662888 11.787217 15,950 309 347 2624
2018-03-14 11:11:08 GMT 51.659904 11.793289 15,900 309 346 2624
2018-03-14 11:11:04 GMT 51.655388 11.801376 15,700 309 345 2624
2018-03-14 11:11:00 GMT 51.651943 11.809387 15,175 309 344 2688
2018-03-14 11:10:57 GMT 51.648834 11.815425 15,300 309 343 2752
2018-03-14 11:10:53 GMT 51.644485 11.823368 15,150 309 342 2752
2018-03-14 11:10:50 GMT 51.641933 11.829376 15,075 309 342 2752
2018-03-14 11:10:46 GMT 51.638351 11.835393 14,900 309 342 2752
2018-03-14 11:10:43 GMT 51.635368 11.841354 14,725 309 340 2560
2018-03-14 11:10:40 GMT 51.632263 11.847344 14,625 309 340 2560
2018-03-14 11:10:37 GMT 51.629459 11.853256 14,425 309 338 2624
2018-03-14 11:10:33 GMT 51.624710 11.863082 13,950 308 333 2944
2018-03-14 11:10:30 GMT 51.621731 11.868973 13,425 309 336 2816
2018-03-14 11:10:27 GMT 51.619217 11.874810 13,975 309 336 2816
2018-03-14 11:10:24 GMT 51.616745 11.878893 13,900 309 335 2816
2018-03-14 11:10:21 GMT 51.613770 11.886762 13,750 309 335 2880
2018-03-14 11:10:17 GMT 51.609055 11.894482 13,525 309 334 2816
2018-03-14 11:10:13 GMT 51.606274 11.900330 13,375 308 332 2880
2018-03-14 11:10:10 GMT 51.601822 11.910070 13,175 308 333 2944
2018-03-14 11:10:07 GMT 51.599991 11.914079 13,050 308 332 2944
2018-03-14 11:10:01 GMT 51.595009 11.923828 12,775 308 331 2816
2018-03-14 11:09:58 GMT 51.592026 11.929668 12,325 308 323 2496
2018-03-14 11:09:53 GMT 51.587563 11.939316 12,425 308 329 2816
2018-03-14 11:09:49 GMT 51.582916 11.948968 12,150 308 328 2688
2018-03-14 11:09:46 GMT 51.580204 11.954803 12,050 308 326 2688
2018-03-14 11:09:38 GMT 51.572479 11.971980 11,675 308 323 2496
2018-03-14 11:09:35 GMT 51.570007 11.975766 11,375 308 319 1792
2018-03-14 11:09:27 GMT 51.563370 11.990983 11,200 308 318 1664
2018-03-14 11:09:24 GMT 51.560654 11.996613 11,250 308 313 1152
2018-03-14 11:09:16 GMT 51.554077 12.009319 11,075 317 270 3200
2018-03-14 11:09:13 GMT 51.551056 12.016296 11,025 309 299 1280
2018-03-14 11:09:06 GMT 51.545479 12.026520 10,325 317 270 3200
2018-03-14 11:09:03 GMT 51.542175 12.033147 10,800 310 286 1408
2018-03-14 11:08:58 GMT 51.539238 12.041245 10,700 311 278 1664
2018-03-14 11:08:55 GMT 51.535538 12.045989 10,600 311 275 2048
2018-03-14 11:08:52 GMT 51.533001 12.050552 10,475 311 273 2688
2018-03-14 11:08:48 GMT 51.529510 12.056656 10,275 317 270 3200
2018-03-14 11:08:44 GMT 51.526566 12.060910 9,325 322 269 3200
2018-03-14 11:08:41 GMT 51.523132 12.066180 9,900 323 269 3264
2018-03-14 11:08:35 GMT 51.516769 12.072564 9,575 332 268 3200
2018-03-14 11:08:29 GMT 51.511261 12.076797 9,300 339 266 3264
2018-03-14 11:08:26 GMT 51.507397 12.079315 9,025 359 266 3072
2018-03-14 11:08:23 GMT 51.504280 12.080307 8,975 348 266 3200
2018-03-14 11:08:18 GMT 51.498550 12.081992 8,700 353 266 3200
2018-03-14 11:08:13 GMT 51.491711 12.082672 8,400 0 266 3072
2018-03-14 11:08:08 GMT 51.485733 12.082586 8,150 1 265 3072
2018-03-14 11:08:02 GMT 51.478821 12.082066 7,850 2 264 3200
2018-03-14 11:07:57 GMT 51.472855 12.081604 7,575 2 264 3136
2018-03-14 11:07:51 GMT 51.464893 12.080994 7,225 3 262 3520
2018-03-14 11:07:46 GMT 51.459457 12.080433 6,950 3 263 3584
2018-03-14 11:07:42 GMT 51.453163 12.079926 6,675 2 263 2560
2018-03-14 11:07:36 GMT 51.446415 12.079468 6,475 1 257 1664
2018-03-14 11:07:30 GMT 51.439590 12.079394 6,300 0 250 1536
2018-03-14 11:07:25 GMT 51.433594 12.080062 6,150 355 241 1728
2018-03-14 11:07:21 GMT 51.427933 12.081223 6,000 351 232 1280
2018-03-14 11:07:15 GMT 51.422150 12.083179 5,850 342 221 2048
2018-03-14 11:07:09 GMT 51.418064 12.086411 5,650 331 215 3072
2018-03-14 11:07:04 GMT 51.412945 12.092056 5,325 316 211 3072
2018-03-14 11:06:59 GMT 51.410336 12.096786 5,125 300 208 2432
2018-03-14 11:06:53 GMT 51.407913 12.106488 4,875 281 201 1920
2018-03-14 11:06:48 GMT 51.407410 12.112278 4,750 271 197 1792
2018-03-14 11:06:41 GMT 51.407635 12.122345 4,475 268 161 1024
2018-03-14 11:06:38 GMT 51.407822 12.127838 4,425 267 182 1408
2018-03-14 11:06:31 GMT 51.408188 12.136998 4,250 267 173 1472
2018-03-14 11:06:27 GMT 51.408337 12.140808 4,150 268 167 1408
2018-03-14 11:06:21 GMT 51.408600 12.149246 4,025 268 156 1088
2018-03-14 11:06:17 GMT 51.408707 12.152710 3,950 268 151 1472
2018-03-14 11:06:07 GMT 51.409149 12.164612 3,525 267 145 2368
2018-03-14 11:05:59 GMT 51.409515 12.173223 3,225 267 145 2432
2018-03-14 11:05:56 GMT 51.409637 12.176514 3,100 268 145 2368
2018-03-14 11:05:49 GMT 51.409882 12.183912 2,825 268 144 2304
2018-03-14 11:05:46 GMT 51.410011 12.187119 2,700 266 143 2368
2018-03-14 11:05:38 GMT 51.410427 12.195587 2,325 265 142 2944
2018-03-14 11:05:35 GMT 51.410614 12.198759 2,175 266 142 2816
2018-03-14 11:05:25 GMT 51.411209 12.209299 1,650 264 144 3456
2018-03-14 11:05:16 GMT 51.411919 12.219009 1,175 264 146 2880
2018-03-14 11:05:13 GMT 51.412060 12.221222 1,075 264 146 2752
2018-03-14 11:05:03 GMT 51.412903 12.233128 600 265 150 1280
2018-03-14 11:04:45 GMT 51.413643 12.248383 0 2 88
2018-03-14 11:04:40 GMT 51.413807 12.252354 0 2 53
2018-03-14 11:04:31 GMT 51.413910 12.254006 0 2 19
2018-03-14 11:04:22 GMT 51.413967 12.254848 0 2 10
2018-03-14 11:04:10 GMT 51.414036 12.255650 0 2 10
2018-03-14 11:03:45 GMT 51.412891 12.256158 0 2 10
2018-03-14 11:03:39 GMT 51.412628 12.256121 0 2 9
2018-03-14 11:03:25 GMT 51.412270 12.255478 0 2 14
2018-03-14 11:03:17 GMT 51.412216 12.254340 0 2 22
2018-03-14 11:03:06 GMT 51.412140 12.252483 0 2 24
2018-03-14 11:02:53 GMT 51.412025 12.250042 0 2 24
2018-03-14 11:02:00 GMT 51.411488 12.238655 0 2 30
2018-03-14 11:01:41 GMT 51.411312 12.234650 0 2 28
2018-03-14 11:01:32 GMT 51.411209 12.232838 0 2 28
2018-03-14 11:01:21 GMT 51.411118 12.230697 0 2 26
2018-03-14 11:01:11 GMT 51.411026 12.228860 0 2 25
2018-03-14 10:59:15 GMT 51.410126 12.209415 0 2 21
2018-03-14 10:58:54 GMT 51.409988 12.206440 0 2 18
2018-03-14 10:58:03 GMT 51.409172 12.202320 0 2 14
2018-03-14 10:58:00 GMT 51.409172 12.202229 0 2 14
2018-03-14 10:57:50 GMT 51.409126 12.201233 0 2 11
2018-03-14 10:57:39 GMT 51.409092 12.200718 0 2 4
2018-03-14 10:57:10 GMT 51.409092 12.200670 0 2 0
2018-03-14 10:57:01 GMT 51.409092 12.200661 0 2 0
2018-03-14 10:56:30 GMT 51.409092 12.200670 0 2 0
2018-03-14 10:56:26 GMT 51.409092 12.200680 0 2 0
2018-03-14 10:56:10 GMT 51.409092 12.200670 0 2 0
2018-03-14 10:56:06 GMT 51.409092 12.200680 0 2 0
2018-03-14 10:55:50 GMT 51.409092 12.200670 0 2 0
2018-03-14 10:55:25 GMT 51.409092 12.200680 0 2 0
2018-03-14 10:55:12 GMT 51.409092 12.200670 0 2 0
2018-03-14 10:55:03 GMT 51.409092 12.200813 0 90 3
2018-03-14 10:54:51 GMT 51.409069 12.200985 0 2 3
2018-03-14 10:54:41 GMT 51.409042 12.201176 0 2 3

Making use of Plane Finder data

You are free to use the raw flight data, aircraft information and images provided in this report for your own purposes provided the data is correctly attributed to Plane Finder. We ask that you please credit Plane Finder and link to planefinder.net in close proximity to the content.

Optionally one of the following logos (no smaller then 150x24px) can be used and must link to planefinder.net

Embedding the Plane Finder map

You are welcome to embed the Plane Finder playback map on your website to offer visitors a more interactive experience. We suggest using the following HTML code:

<iframe src="//planefinder.net/data/report/BCS6892-G-DHKC-7700-squawk-2018-03-14/map" width="800" height="600" seamless="seamless"></iframe>

Where our data comes from

Plane Finder has a global network of data feeds and antenna radars that receive data broadcast directly from aircraft. The primary technologies used are ADS-B and MLAT. We also show feeds from the FAA and a FLARM glider feed.

Click here to find out more about the Plane Finder network.

How we collect our data